createdAt,value
2023-01-01T00:01:15.254Z,29.13
2023-01-01T00:03:41.743Z,21.48
2023-01-01T00:06:13.247Z,19.52
2023-01-01T00:08:40.205Z,17.90
2023-01-01T00:11:08.586Z,22.08
2023-01-01T00:13:36.693Z,17.10
2023-01-01T00:16:10.064Z,17.38
2023-01-01T00:18:40.090Z,16.08
2023-01-01T00:21:17.676Z,15.35
2023-01-01T00:23:44.171Z,16.13
2023-01-01T00:26:17.998Z,16.50
2023-01-01T00:28:45.985Z,9.82
2023-01-01T00:31:17.059Z,11.82
2023-01-01T00:33:44.411Z,16.92
2023-01-01T00:36:15.098Z,12.57
2023-01-01T00:38:43.047Z,17.58
2023-01-01T00:41:10.313Z,10.43
2023-01-01T00:43:36.936Z,17.05
2023-01-01T00:46:05.108Z,22.35
2023-01-01T00:48:31.853Z,50.33
2023-01-01T00:51:04.416Z,52.38
2023-01-01T00:53:31.118Z,66.20
2023-01-01T00:55:57.504Z,71.38
2023-01-01T00:58:25.013Z,77.05
2023-01-01T01:00:54.920Z,72.53
2023-01-01T01:03:28.418Z,72.20
2023-01-01T01:06:02.253Z,57.72
2023-01-01T01:08:36.915Z,59.97
2023-01-01T01:11:11.786Z,57.53
2023-01-01T01:13:39.322Z,50.28
2023-01-01T01:16:10.838Z,50.38
2023-01-01T01:18:40.107Z,47.53
2023-01-01T01:21:13.983Z,44.75
2023-01-01T01:23:40.534Z,37.22
2023-01-01T01:26:19.687Z,42.05
2023-01-01T01:28:49.874Z,42.85
2023-01-01T01:31:18.496Z,42.08
2023-01-01T01:33:47.047Z,44.90
2023-01-01T01:36:14.538Z,42.03
2023-01-01T01:38:41.763Z,43.38
2023-01-01T01:41:20.283Z,42.25
2023-01-01T01:43:58.239Z,40.97
2023-01-01T01:46:53.524Z,42.28
2023-01-01T01:49:33.253Z,44.88
2023-01-01T01:52:01.774Z,43.45
2023-01-01T01:54:29.980Z,39.13
2023-01-01T01:57:06.083Z,37.65
2023-01-01T01:59:38.179Z,36.92
2023-01-01T02:02:12.693Z,36.25
2023-01-01T02:04:39.233Z,40.30
2023-01-01T02:07:06.980Z,34.72
2023-01-01T02:09:33.573Z,37.38
2023-01-01T02:12:00.097Z,32.08
2023-01-01T02:14:29.081Z,35.13
2023-01-01T02:17:13.983Z,32.17
2023-01-01T02:20:02.498Z,30.17
2023-01-01T02:22:50.261Z,33.70
2023-01-01T02:25:44.207Z,31.50
2023-01-01T02:28:19.866Z,30.17
2023-01-01T02:30:48.647Z,25.92
2023-01-01T02:33:20.572Z,24.13
2023-01-01T02:36:07.427Z,30.08
2023-01-01T02:38:43.950Z,29.75
2023-01-01T02:41:26.015Z,32.08
2023-01-01T02:48:52.222Z,30.88
2023-01-01T02:51:39.589Z,28.58
2023-01-01T02:54:14.813Z,23.63
2023-01-01T02:56:46.476Z,24.27
2023-01-01T02:59:31.624Z,30.52
2023-01-01T03:02:10.300Z,25.10
2023-01-01T03:05:01.769Z,28.45
2023-01-01T03:08:03.083Z,25.48
2023-01-01T03:10:41.619Z,23.60
2023-01-01T03:13:23.812Z,22.45
2023-01-01T03:16:08.503Z,29.00
2023-01-01T03:19:11.000Z,23.55
2023-01-01T03:24:17.817Z,25.73
2023-01-01T03:26:51.515Z,34.30
2023-01-01T03:29:18.759Z,31.85
2023-01-01T03:31:51.877Z,22.50
2023-01-01T03:34:23.652Z,27.13
2023-01-01T03:36:55.654Z,24.50
2023-01-01T03:39:27.562Z,27.02
2023-01-01T03:42:06.139Z,20.33
2023-01-01T03:44:53.335Z,26.25
2023-01-01T03:47:22.445Z,23.92
2023-01-01T03:49:48.947Z,28.25
2023-01-01T03:52:23.556Z,22.95
2023-01-01T03:55:11.411Z,24.10
2023-01-01T03:57:44.885Z,25.80
2023-01-01T04:00:18.048Z,20.20
2023-01-01T04:02:54.962Z,22.27
2023-01-01T04:05:22.129Z,20.88
2023-01-01T04:10:18.124Z,19.10
2023-01-01T04:12:55.344Z,17.27
2023-01-01T04:15:24.879Z,15.38
2023-01-01T04:17:54.874Z,16.23
2023-01-01T04:20:21.891Z,14.27
2023-01-01T04:22:53.460Z,14.40
2023-01-01T04:25:19.801Z,15.50
2023-01-01T04:27:46.161Z,18.80
2023-01-01T04:30:14.661Z,18.67
2023-01-01T04:32:43.814Z,18.15
2023-01-01T04:35:14.585Z,13.68
2023-01-01T04:37:42.738Z,15.23
2023-01-01T04:40:10.692Z,15.95
2023-01-01T04:42:37.342Z,16.02
2023-01-01T04:45:04.392Z,16.40
2023-01-01T04:47:36.155Z,20.17
2023-01-01T04:50:05.574Z,13.38
2023-01-01T04:52:31.915Z,13.18
2023-01-01T04:55:02.935Z,14.00
2023-01-01T04:57:31.843Z,22.25
2023-01-01T04:59:58.285Z,12.02
2023-01-01T05:02:27.546Z,14.55
2023-01-01T05:04:54.301Z,11.57
2023-01-01T05:07:20.764Z,14.05
2023-01-01T05:09:47.179Z,14.13
2023-01-01T05:12:20.066Z,12.25
2023-01-01T05:14:46.500Z,11.20
2023-01-01T05:17:15.482Z,14.15
2023-01-01T05:19:41.946Z,8.98
2023-01-01T05:22:10.888Z,10.10
2023-01-01T05:24:37.727Z,9.75
2023-01-01T05:27:04.111Z,12.48
2023-01-01T05:29:30.510Z,8.45
2023-01-01T05:31:57.150Z,9.43
2023-01-01T05:34:25.352Z,10.30
2023-01-01T05:36:54.314Z,11.45
2023-01-01T05:39:20.785Z,10.35
2023-01-01T05:41:47.241Z,7.38
2023-01-01T05:44:16.426Z,8.88
2023-01-01T05:46:43.542Z,6.38
2023-01-01T05:49:11.770Z,5.65
2023-01-01T05:54:04.155Z,7.43
2023-01-01T05:56:30.512Z,7.93
2023-01-01T05:58:56.944Z,10.10
2023-01-01T06:01:30.690Z,5.80
2023-01-01T06:03:59.007Z,12.65
2023-01-01T06:06:28.873Z,9.90
2023-01-01T06:09:04.831Z,7.38
2023-01-01T06:11:34.001Z,5.10
2023-01-01T06:14:01.365Z,5.18
2023-01-01T06:16:29.205Z,7.45
2023-01-01T06:18:58.852Z,7.57
2023-01-01T06:21:27.744Z,7.10
2023-01-01T06:23:56.715Z,5.82
2023-01-01T06:26:27.734Z,9.75
2023-01-01T06:28:55.821Z,6.30
2023-01-01T06:31:25.494Z,6.68
2023-01-01T06:33:54.210Z,9.25
2023-01-01T06:36:23.642Z,11.15
2023-01-01T06:38:52.977Z,4.65
2023-01-01T06:41:24.136Z,10.68
2023-01-01T06:43:50.958Z,7.80
2023-01-01T06:46:29.061Z,6.38
2023-01-01T06:48:58.847Z,6.82
2023-01-01T06:51:33.499Z,6.50
2023-01-01T06:54:01.986Z,8.82
2023-01-01T06:56:28.564Z,5.75
2023-01-01T06:58:54.966Z,7.18
2023-01-01T07:01:24.476Z,12.38
2023-01-01T07:03:53.585Z,7.18
2023-01-01T07:06:20.845Z,11.32
2023-01-01T07:08:47.185Z,5.38
2023-01-01T07:11:13.701Z,6.57
2023-01-01T07:13:40.407Z,5.05
2023-01-01T07:16:12.610Z,6.00
2023-01-01T07:18:40.117Z,8.75
2023-01-01T07:21:28.275Z,10.18
2023-01-01T07:23:58.982Z,3.90
2023-01-01T07:26:27.304Z,9.18
2023-01-01T07:28:53.989Z,5.85
2023-01-01T07:31:20.489Z,7.00
2023-01-01T07:33:49.690Z,5.95
2023-01-01T07:36:16.419Z,5.97
2023-01-01T07:38:42.817Z,8.13
2023-01-01T07:41:09.335Z,8.95
2023-01-01T07:43:35.786Z,11.52
2023-01-01T07:46:05.068Z,10.63
2023-01-01T07:48:37.837Z,4.90
2023-01-01T07:51:06.374Z,8.75
2023-01-01T07:53:32.805Z,12.00
2023-01-01T07:55:59.252Z,5.18
2023-01-01T07:58:25.681Z,8.25
2023-01-01T08:00:54.508Z,6.60
2023-01-01T08:03:21.014Z,10.35
2023-01-01T08:05:48.476Z,6.88
2023-01-01T08:08:14.943Z,9.95
2023-01-01T08:10:41.324Z,8.57
2023-01-01T08:13:08.869Z,7.68
2023-01-01T08:15:38.183Z,9.07
2023-01-01T08:18:06.026Z,9.18
2023-01-01T08:20:33.714Z,16.63
2023-01-01T08:23:06.383Z,25.77
2023-01-01T08:25:36.224Z,26.40
2023-01-01T08:28:11.233Z,14.82
2023-01-01T08:30:37.612Z,20.33
2023-01-01T08:33:04.153Z,13.85
2023-01-01T08:35:30.940Z,8.77
2023-01-01T08:37:57.430Z,8.13
2023-01-01T08:40:23.801Z,6.50
2023-01-01T08:42:50.166Z,6.40
2023-01-01T08:45:16.550Z,6.47
2023-01-01T08:47:43.481Z,6.50
2023-01-01T08:50:10.105Z,10.18
2023-01-01T08:52:38.829Z,8.20
2023-01-01T08:55:05.596Z,6.35
2023-01-01T08:57:32.147Z,8.95
2023-01-01T08:59:58.654Z,8.30
2023-01-01T09:02:25.183Z,5.70
2023-01-01T09:04:51.779Z,6.93
2023-01-01T09:07:20.785Z,8.75
2023-01-01T09:09:47.375Z,15.75
2023-01-01T09:12:16.488Z,5.15
2023-01-01T09:14:43.093Z,4.78
2023-01-01T09:17:09.502Z,6.60
2023-01-01T09:19:35.938Z,4.32
2023-01-01T09:22:02.341Z,2.90
2023-01-01T09:24:28.807Z,4.45
2023-01-01T09:26:55.253Z,8.57
2023-01-01T09:29:21.812Z,4.80
2023-01-01T09:31:49.208Z,2.40
2023-01-01T09:34:17.852Z,7.45
2023-01-01T09:36:45.501Z,8.10
2023-01-01T09:39:15.974Z,5.28
2023-01-01T09:42:13.585Z,11.68
2023-01-01T09:44:46.071Z,6.80
2023-01-01T09:47:34.411Z,5.22
2023-01-01T09:50:20.274Z,4.53
2023-01-01T09:52:55.537Z,3.03
2023-01-01T09:55:35.557Z,11.85
2023-01-01T09:58:02.188Z,5.22
2023-01-01T10:00:33.539Z,11.13
2023-01-01T10:03:29.003Z,7.50
2023-01-01T10:06:06.947Z,6.20
2023-01-01T10:08:56.686Z,10.52
2023-01-01T10:11:42.618Z,4.22
2023-01-01T10:14:20.922Z,11.70
2023-01-01T10:16:52.391Z,3.35
2023-01-01T10:19:37.596Z,6.85
2023-01-01T10:22:11.676Z,4.95
2023-01-01T10:24:47.556Z,4.60
2023-01-01T10:27:24.290Z,10.57
2023-01-01T10:29:55.475Z,5.68
2023-01-01T10:32:37.162Z,12.25
2023-01-01T10:35:15.923Z,7.00
2023-01-01T10:37:42.928Z,8.10
2023-01-01T10:40:21.403Z,6.60
2023-01-01T10:42:56.052Z,9.73
2023-01-01T10:45:39.029Z,16.45
2023-01-01T10:48:22.871Z,9.52
2023-01-01T10:51:24.774Z,5.10
2023-01-01T10:53:52.266Z,4.75
2023-01-01T10:56:21.020Z,3.88
2023-01-01T10:58:52.307Z,8.18
2023-01-01T11:01:21.164Z,8.77
2023-01-01T11:04:11.588Z,3.05
2023-01-01T11:06:43.403Z,10.50
2023-01-01T11:09:23.467Z,5.88
2023-01-01T11:12:07.999Z,10.07
2023-01-01T11:15:00.975Z,3.70
2023-01-01T11:17:30.997Z,5.20
2023-01-01T11:20:02.085Z,2.15
2023-01-01T11:22:41.516Z,7.05
2023-01-01T11:25:17.563Z,10.77
2023-01-01T11:27:46.963Z,6.53
2023-01-01T11:30:22.679Z,6.13
2023-01-01T11:32:55.469Z,8.40
2023-01-01T11:35:25.742Z,6.32
2023-01-01T11:37:54.152Z,3.08
2023-01-01T11:40:38.679Z,5.22
2023-01-01T11:43:08.633Z,7.90
2023-01-01T11:45:40.681Z,7.22
2023-01-01T11:51:01.650Z,14.60
2023-01-01T11:53:32.528Z,11.80
2023-01-01T11:56:01.772Z,12.35
2023-01-01T11:58:41.749Z,27.08
2023-01-01T12:01:30.271Z,25.10
2023-01-01T12:04:11.418Z,11.02
2023-01-01T12:06:53.904Z,9.65
2023-01-01T12:09:51.249Z,6.60
2023-01-01T12:12:31.664Z,8.98
2023-01-01T12:15:03.680Z,5.38
2023-01-01T12:20:21.258Z,7.82
2023-01-01T12:22:52.755Z,8.48
2023-01-01T12:25:25.881Z,10.50
2023-01-01T12:27:58.092Z,6.55
2023-01-01T12:30:31.891Z,5.28
2023-01-01T12:33:27.719Z,11.82
2023-01-01T12:36:03.578Z,6.97
2023-01-01T12:38:51.487Z,4.55
2023-01-01T12:41:41.216Z,6.15
2023-01-01T12:44:41.327Z,9.75
2023-01-01T12:47:31.697Z,7.43
2023-01-01T12:50:01.098Z,8.60
2023-01-01T12:52:30.192Z,7.13
2023-01-01T12:55:23.485Z,7.70
2023-01-01T12:58:00.192Z,10.18
2023-01-01T13:00:28.184Z,8.43
2023-01-01T13:03:07.871Z,8.65
2023-01-01T13:05:39.842Z,13.57
2023-01-01T13:08:07.192Z,15.07
2023-01-01T13:10:43.522Z,41.90
2023-01-01T13:13:13.474Z,32.80
2023-01-01T13:15:43.986Z,31.35
2023-01-01T13:18:13.327Z,16.20
2023-01-01T13:21:02.470Z,14.77
2023-01-01T13:23:28.848Z,14.40
2023-01-01T13:26:23.047Z,19.13
2023-01-01T13:28:58.434Z,15.23
2023-01-01T13:31:42.945Z,11.23
2023-01-01T13:34:31.466Z,9.25
2023-01-01T13:37:10.072Z,10.93
2023-01-01T13:40:21.913Z,7.20
2023-01-01T13:42:57.787Z,16.07
2023-01-01T13:46:11.179Z,16.88
2023-01-01T13:49:08.935Z,9.63
2023-01-01T13:52:05.441Z,9.02
2023-01-01T13:54:55.026Z,10.27
2023-01-01T13:58:00.051Z,15.40
2023-01-01T14:01:29.541Z,11.63
2023-01-01T14:03:58.896Z,7.25
2023-01-01T14:06:45.887Z,11.68
2023-01-01T14:09:17.431Z,12.27
2023-01-01T14:11:43.942Z,4.45
2023-01-01T14:14:24.159Z,10.15
2023-01-01T14:16:52.716Z,4.93
2023-01-01T14:19:22.641Z,11.35
2023-01-01T14:21:49.687Z,4.95
2023-01-01T14:24:19.876Z,14.50
2023-01-01T14:26:47.273Z,12.50
2023-01-01T14:29:22.129Z,11.77
2023-01-01T14:31:48.798Z,15.40
2023-01-01T14:34:26.597Z,5.15
2023-01-01T14:37:23.833Z,15.55
2023-01-01T14:40:28.764Z,8.75
2023-01-01T14:43:00.420Z,8.52
2023-01-01T14:45:27.324Z,8.55
2023-01-01T14:47:56.770Z,15.75
2023-01-01T14:50:34.045Z,7.03
2023-01-01T14:53:12.174Z,8.23
2023-01-01T14:55:42.205Z,7.95
2023-01-01T14:58:18.685Z,7.20
2023-01-01T15:00:45.464Z,4.72
2023-01-01T15:03:13.625Z,4.47
2023-01-01T15:05:40.830Z,7.70
2023-01-01T15:08:18.468Z,6.20
2023-01-01T15:10:45.196Z,7.60
2023-01-01T15:13:19.658Z,5.55
2023-01-01T15:15:52.120Z,14.13
2023-01-01T15:18:39.406Z,8.88
2023-01-01T15:21:18.320Z,2.88
2023-01-01T15:23:57.465Z,9.40
2023-01-01T15:26:50.192Z,8.23
2023-01-01T15:29:28.038Z,17.65
2023-01-01T15:32:01.382Z,10.60
2023-01-01T15:34:34.223Z,14.95
2023-01-01T15:37:18.734Z,7.28
2023-01-01T15:39:51.018Z,9.38
2023-01-01T15:42:39.873Z,9.10
2023-01-01T15:45:24.162Z,9.52
2023-01-01T15:47:52.357Z,14.45
2023-01-01T15:50:21.897Z,10.18
2023-01-01T15:52:56.168Z,18.88
2023-01-01T15:55:25.877Z,24.75
2023-01-01T15:57:52.537Z,20.92
2023-01-01T16:00:28.400Z,20.95
2023-01-01T16:03:00.765Z,16.55
2023-01-01T16:05:28.118Z,16.20
2023-01-01T16:08:15.006Z,10.85
2023-01-01T16:10:41.806Z,12.10
2023-01-01T16:13:08.235Z,18.73
2023-01-01T16:15:35.860Z,9.52
2023-01-01T16:18:02.683Z,9.02
2023-01-01T16:20:29.204Z,11.73
2023-01-01T16:22:55.777Z,6.13
2023-01-01T16:25:22.783Z,12.88
2023-01-01T16:27:49.207Z,12.82
2023-01-01T16:30:16.189Z,16.92
2023-01-01T16:32:45.220Z,16.70
2023-01-01T16:35:15.743Z,17.63
2023-01-01T16:37:42.303Z,17.73
2023-01-01T16:40:09.400Z,14.00
2023-01-01T16:42:35.934Z,16.70
2023-01-01T16:45:03.140Z,24.92
2023-01-01T16:47:29.548Z,17.85
2023-01-01T16:49:56.106Z,15.65
2023-01-01T16:52:22.572Z,12.55
2023-01-01T16:54:48.934Z,16.83
2023-01-01T16:57:15.422Z,20.85
2023-01-01T16:59:42.693Z,14.95
2023-01-01T17:02:15.426Z,23.08
2023-01-01T17:04:42.071Z,21.33
2023-01-01T17:07:08.560Z,23.00
2023-01-01T17:09:34.968Z,16.50
2023-01-01T17:12:01.331Z,13.63
2023-01-01T17:14:30.648Z,22.65
2023-01-01T17:16:57.108Z,16.45
2023-01-01T17:19:23.816Z,19.10
2023-01-01T17:21:50.357Z,15.30
2023-01-01T17:24:20.393Z,24.63
2023-01-01T17:26:53.964Z,20.60
2023-01-01T17:29:21.559Z,20.23
2023-01-01T17:31:50.992Z,24.88
2023-01-01T17:34:20.294Z,23.02
2023-01-01T17:36:49.614Z,23.73
2023-01-01T17:39:16.365Z,16.65
2023-01-01T17:41:44.697Z,12.27
2023-01-01T17:44:13.377Z,23.83
2023-01-01T17:46:40.245Z,17.98
2023-01-01T17:49:12.631Z,23.40
2023-01-01T17:51:41.370Z,18.73
2023-01-01T17:54:13.128Z,17.55
2023-01-01T17:56:42.801Z,23.40
2023-01-01T17:59:10.038Z,17.85
2023-01-01T18:01:36.663Z,11.43
2023-01-01T18:04:05.660Z,11.23
2023-01-01T18:06:37.376Z,9.15
2023-01-01T18:09:11.414Z,5.43
2023-01-01T18:11:38.019Z,10.70
2023-01-01T18:14:05.390Z,8.60
2023-01-01T18:16:34.106Z,9.75
2023-01-01T18:19:01.349Z,6.05
2023-01-01T18:21:27.927Z,5.40
2023-01-01T18:23:56.037Z,15.73
2023-01-01T18:26:24.812Z,5.32
2023-01-01T18:29:03.581Z,4.40
2023-01-01T18:31:32.300Z,11.45
2023-01-01T18:33:59.127Z,5.55
2023-01-01T18:36:28.884Z,6.50
2023-01-01T18:38:58.747Z,7.63
2023-01-01T18:41:39.936Z,6.47
2023-01-01T18:44:31.529Z,6.65
2023-01-01T18:47:08.102Z,6.13
2023-01-01T18:49:36.997Z,4.43
2023-01-01T18:52:19.700Z,8.80
2023-01-01T18:54:46.064Z,6.28
2023-01-01T18:57:26.815Z,13.55
2023-01-01T19:00:00.479Z,7.85
2023-01-01T19:02:36.189Z,11.25
2023-01-01T19:05:27.202Z,5.22
2023-01-01T19:08:03.212Z,7.32
2023-01-01T19:10:37.207Z,6.95
2023-01-01T19:13:23.453Z,6.18
2023-01-01T19:15:54.379Z,3.05
2023-01-01T19:18:23.728Z,6.57
2023-01-01T19:20:58.138Z,4.68
2023-01-01T19:23:24.863Z,5.90
2023-01-01T19:25:51.914Z,9.90
2023-01-01T19:28:18.377Z,9.68
2023-01-01T19:30:45.852Z,11.15
2023-01-01T19:33:13.622Z,11.60
2023-01-01T19:35:40.450Z,11.60
2023-01-01T19:38:07.083Z,11.30
2023-01-01T19:40:33.518Z,7.22
2023-01-01T19:43:01.646Z,5.53
2023-01-01T19:45:28.111Z,11.70
2023-01-01T19:47:54.666Z,11.35
2023-01-01T19:50:23.984Z,8.23
2023-01-01T19:52:50.465Z,7.82
2023-01-01T19:55:16.944Z,6.35
2023-01-01T19:57:43.317Z,13.60
2023-01-01T20:00:10.159Z,6.40
2023-01-01T20:02:52.054Z,10.68
2023-01-01T20:05:18.819Z,10.88
2023-01-01T20:07:47.393Z,8.68
2023-01-01T20:10:18.655Z,9.18
2023-01-01T20:12:47.850Z,7.20
2023-01-01T20:15:15.230Z,4.43
2023-01-01T20:17:44.617Z,11.55
2023-01-01T20:20:11.920Z,9.77
2023-01-01T20:22:38.344Z,10.32
2023-01-01T20:25:05.074Z,8.25
2023-01-01T20:27:31.827Z,8.55
2023-01-01T20:30:00.845Z,9.05
2023-01-01T20:32:31.975Z,8.13
2023-01-01T20:34:58.436Z,10.02
2023-01-01T20:37:36.836Z,4.28
2023-01-01T20:40:09.302Z,6.43
2023-01-01T20:42:38.051Z,9.43
2023-01-01T20:45:05.802Z,6.35
2023-01-01T20:47:32.640Z,5.80
2023-01-01T20:50:01.540Z,9.10
2023-01-01T20:52:27.996Z,5.80
2023-01-01T20:54:54.877Z,14.27
2023-01-01T20:57:21.255Z,4.20
2023-01-01T20:59:47.732Z,8.13
2023-01-01T21:02:16.814Z,6.38
2023-01-01T21:04:43.318Z,9.23
2023-01-01T21:07:12.696Z,7.10
2023-01-01T21:09:40.591Z,4.82
2023-01-01T21:12:12.300Z,5.53
2023-01-01T21:14:38.701Z,8.68
2023-01-01T21:17:19.334Z,9.38
2023-01-01T21:19:45.797Z,5.57
2023-01-01T21:22:12.895Z,11.20
2023-01-01T21:24:42.054Z,11.52
2023-01-01T21:27:08.393Z,4.57
2023-01-01T21:29:38.130Z,6.63
2023-01-01T21:32:28.185Z,4.53
2023-01-01T21:34:55.444Z,4.47
2023-01-01T21:37:46.181Z,17.33
2023-01-01T21:40:39.004Z,5.13
2023-01-01T21:43:05.503Z,4.20
2023-01-01T21:45:41.350Z,7.38
2023-01-01T21:48:57.280Z,4.32
2023-01-01T21:51:27.639Z,8.88
2023-01-01T21:54:04.572Z,23.38
2023-01-01T21:56:35.677Z,6.63
2023-01-01T21:59:27.737Z,5.80
2023-01-01T22:02:06.840Z,6.25
2023-01-01T22:04:47.625Z,9.95
2023-01-01T22:10:26.484Z,13.05
2023-01-01T22:13:00.209Z,4.82
2023-01-01T22:15:26.546Z,5.50
2023-01-01T22:17:59.590Z,5.00
2023-01-01T22:20:25.990Z,10.35
2023-01-01T22:23:00.109Z,5.90
2023-01-01T22:25:31.748Z,6.07
2023-01-01T22:28:05.977Z,7.70
2023-01-01T22:30:40.609Z,2.72
2023-01-01T22:33:28.056Z,13.35
2023-01-01T22:35:57.753Z,10.68
2023-01-01T22:38:32.438Z,4.30
2023-01-01T22:40:59.714Z,6.93
2023-01-01T22:43:33.238Z,6.57
2023-01-01T22:46:09.960Z,4.97
2023-01-01T22:48:38.197Z,4.90
2023-01-01T22:51:13.961Z,8.00
2023-01-01T22:53:42.689Z,3.30
2023-01-01T22:56:09.184Z,4.63
2023-01-01T22:58:35.633Z,6.70
2023-01-01T23:01:02.091Z,4.65
2023-01-01T23:03:28.614Z,8.63
2023-01-01T23:05:55.246Z,4.18
2023-01-01T23:08:21.839Z,7.72
2023-01-01T23:10:48.458Z,7.00
2023-01-01T23:13:33.548Z,5.10
2023-01-01T23:16:00.154Z,5.07
2023-01-01T23:18:31.213Z,5.60
2023-01-01T23:20:58.499Z,3.08
2023-01-01T23:23:26.085Z,9.48
2023-01-01T23:25:53.080Z,4.70
2023-01-01T23:28:19.811Z,6.40
2023-01-01T23:30:46.600Z,6.53
2023-01-01T23:33:13.181Z,8.98
2023-01-01T23:35:40.210Z,12.05
2023-01-01T23:38:10.162Z,5.57
2023-01-01T23:40:36.556Z,6.88
2023-01-01T23:43:03.125Z,6.32
2023-01-01T23:45:29.761Z,11.27
2023-01-01T23:47:56.215Z,5.50
2023-01-01T23:50:23.180Z,12.80
2023-01-01T23:52:49.564Z,6.80
2023-01-01T23:55:18.499Z,5.07
2023-01-01T23:57:45.109Z,6.93
